createdAt,value
2023-01-11T00:07:14.080Z,100193.00
2023-01-11T00:17:14.017Z,100182.00
2023-01-11T00:27:14.152Z,100180.00
2023-01-11T00:37:14.167Z,100172.00
2023-01-11T00:47:32.374Z,100150.00
2023-01-11T00:57:32.195Z,100144.00
2023-01-11T01:07:32.210Z,100142.00
2023-01-11T01:17:32.207Z,100140.00
2023-01-11T01:27:32.195Z,100137.00
2023-01-11T01:37:32.212Z,100129.00
2023-01-11T01:47:32.195Z,100123.00
2023-01-11T01:57:32.305Z,100109.00
2023-01-11T02:07:32.258Z,100103.00
2023-01-11T02:17:32.229Z,100099.00
2023-01-11T02:27:32.295Z,100089.00
2023-01-11T02:37:35.292Z,100078.00
2023-01-11T02:47:35.282Z,100072.00
2023-01-11T02:57:35.597Z,100064.00
2023-01-11T03:07:35.320Z,100048.00
2023-01-11T03:17:35.240Z,100036.00
2023-01-11T03:27:35.390Z,100020.00
2023-01-11T03:37:35.490Z,100029.00
2023-01-11T03:47:35.399Z,100008.00
2023-01-11T03:57:35.353Z,100006.00
2023-01-11T04:07:35.424Z,100005.00
2023-01-11T04:17:35.401Z,99999.00
2023-01-11T04:27:35.539Z,99997.00
2023-01-11T04:37:35.390Z,99989.00
2023-01-11T04:47:35.384Z,99989.00
2023-01-11T04:57:35.390Z,99979.00
2023-01-11T05:07:35.443Z,99973.00
2023-01-11T05:17:35.424Z,99971.00
2023-01-11T05:27:35.488Z,99973.00
2023-01-11T05:37:36.238Z,99969.00
2023-01-11T05:47:36.454Z,99963.00
2023-01-11T05:57:36.527Z,99958.00
2023-01-11T06:07:37.111Z,99958.00
2023-01-11T06:17:38.697Z,99959.00
2023-01-11T06:27:38.677Z,99956.00
2023-01-11T06:37:38.555Z,99961.00
2023-01-11T06:47:38.541Z,99963.00
2023-01-11T06:57:38.639Z,99969.00
2023-01-11T07:07:38.667Z,99971.00
2023-01-11T07:17:38.656Z,99987.00
2023-01-11T07:27:38.621Z,99995.00
2023-01-11T07:37:40.591Z,100014.00
2023-01-11T07:47:40.688Z,100042.00
2023-01-11T07:57:40.684Z,100054.00
2023-01-11T08:07:40.767Z,100044.00
2023-01-11T08:17:40.715Z,100048.00
2023-01-11T08:27:41.633Z,100064.00
2023-01-11T08:37:41.777Z,100074.00
2023-01-11T08:47:41.764Z,100084.00
2023-01-11T08:57:44.693Z,100091.00
2023-01-11T09:07:44.770Z,100105.00
2023-01-11T09:17:44.927Z,100135.00
2023-01-11T09:27:44.876Z,100164.00
2023-01-11T09:37:46.638Z,100174.00
2023-01-11T09:47:47.036Z,100187.00
2023-01-11T09:57:46.982Z,100203.00
2023-01-11T10:07:49.291Z,100207.00
2023-01-11T10:18:40.324Z,100221.00
2023-01-11T10:27:54.523Z,100234.00
2023-01-11T10:38:00.347Z,100252.00
2023-01-11T10:48:22.159Z,100256.00
2023-01-11T10:58:21.876Z,100262.00
2023-01-11T11:08:23.730Z,100260.00
2023-01-11T11:18:23.865Z,100256.00
2023-01-11T11:28:23.896Z,100266.00
2023-01-11T11:38:23.927Z,100272.00
2023-01-11T11:48:23.909Z,100286.00
2023-01-11T11:58:23.983Z,100296.00
2023-01-11T12:08:24.598Z,100306.00
2023-01-11T12:18:25.274Z,100304.00
2023-01-11T12:28:26.893Z,100296.00
2023-01-11T12:38:26.989Z,100296.00
2023-01-11T12:48:27.208Z,100302.00
2023-01-11T12:58:27.101Z,100306.00
2023-01-11T13:08:27.124Z,100309.00
2023-01-11T13:18:27.307Z,100325.00
2023-01-11T13:28:27.125Z,100339.00
2023-01-11T13:38:27.127Z,100347.00
2023-01-11T13:48:27.101Z,100351.00
2023-01-11T13:58:28.624Z,100355.00
2023-01-11T14:08:32.117Z,100368.00
2023-01-11T14:18:32.156Z,100372.00
2023-01-11T14:28:32.260Z,100376.00
2023-01-11T14:38:32.168Z,100382.00
2023-01-11T14:48:33.914Z,100392.00
2023-01-11T14:58:34.332Z,100404.00
2023-01-11T15:08:34.225Z,100408.00
2023-01-11T15:18:34.404Z,100402.00
2023-01-11T15:28:34.306Z,100410.00
2023-01-11T15:38:34.240Z,100410.00
2023-01-11T15:48:34.341Z,100421.00
2023-01-11T15:58:34.408Z,100423.00
2023-01-11T16:08:34.356Z,100437.00
2023-01-11T16:18:34.362Z,100441.00
2023-01-11T16:28:34.366Z,100447.00
2023-01-11T16:38:34.352Z,100466.00
2023-01-11T16:48:34.367Z,100484.00
2023-01-11T16:58:34.458Z,100500.00
2023-01-11T17:08:35.083Z,100513.00
2023-01-11T17:18:35.373Z,100525.00
2023-01-11T17:28:35.489Z,100531.00
2023-01-11T17:38:35.505Z,100545.00
2023-01-11T17:48:35.483Z,100531.00
2023-01-11T17:58:35.466Z,100527.00
2023-01-11T18:08:35.402Z,100531.00
2023-01-11T18:18:35.493Z,100533.00
2023-01-11T18:28:36.073Z,100543.00
2023-01-11T18:38:36.445Z,100549.00
2023-01-11T18:48:36.452Z,100545.00
2023-01-11T18:58:36.567Z,100547.00
2023-01-11T19:08:36.453Z,100527.00
2023-01-11T19:18:36.477Z,100513.00
2023-01-11T19:28:36.479Z,100504.00
2023-01-11T19:38:36.515Z,100502.00
2023-01-11T19:48:36.536Z,100504.00
2023-01-11T19:58:36.590Z,100513.00
2023-01-11T20:08:38.070Z,100500.00
2023-01-11T20:18:38.751Z,100490.00
2023-01-11T20:28:38.637Z,100482.00
2023-01-11T20:38:38.664Z,100468.00
2023-01-11T20:48:38.671Z,100460.00
2023-01-11T20:58:38.671Z,100449.00
2023-01-11T21:08:38.708Z,100449.00
2023-01-11T21:18:38.819Z,100441.00
2023-01-11T21:28:38.682Z,100435.00
2023-01-11T21:38:38.673Z,100421.00
2023-01-11T21:48:38.703Z,100404.00
2023-01-11T21:58:38.719Z,100390.00
2023-01-11T22:08:39.231Z,100384.00
2023-01-11T22:18:40.564Z,100382.00
2023-01-11T22:29:00.223Z,100376.00
2023-01-11T22:39:00.822Z,100374.00
2023-01-11T22:49:00.710Z,100374.00
2023-01-11T22:59:00.836Z,100372.00
2023-01-11T23:09:05.815Z,100366.00
2023-01-11T23:19:05.725Z,100364.00
2023-01-11T23:29:05.768Z,100363.00
2023-01-11T23:39:05.895Z,100361.00
2023-01-11T23:49:05.876Z,100355.00
2023-01-11T23:59:05.807Z,100353.00
